Time;durP1;ratioP1;P1;durP2;ratioP2;P2;SDS_P1;SDS_P2;PMS_P1;PMS_P2;Temp;Humidity;BMP_temperature;BMP_pressure;BME280_temperature;BME280_humidity;BME280_pressure;Samples;Min_cycle;Max_cycle;Signal;HPM_P1;HPM_P2
2022/01/15 00:00:36;;;;;;;;;;;;;;;3.48;73.54;100642.62;1763524;80;20123;-80
2022/01/15 00:03:03;;;;;;;;;;;;;;;3.52;73.46;100652.40;1758094;80;20146;-77
2022/01/15 00:05:30;;;;;;;;;;;;;;;3.22;74.72;100649.50;1757610;80;20180;-78
2022/01/15 00:07:57;;;;;;;;;;;;;;;3.24;75.07;100645.84;1764099;80;21819;-75
2022/01/15 00:10:26;;;;;;;;;;;;;;;3.02;75.84;100646.35;1766156;80;20556;-76
2022/01/15 00:12:50;;;;;;;;;;;;;;;3.06;76.33;100678.30;1774784;80;20157;-75
2022/01/15 00:15:21;;;;;;;;;;;;;;;3.08;76.41;100656.88;1767642;80;20194;-76
2022/01/15 00:17:47;;;;;;;;;;;;;;;3.02;76.92;100650.74;1752083;80;20191;-75
2022/01/15 00:20:11;;;;;;;;;;;;;;;2.76;77.43;100634.91;1758831;80;20599;-76
2022/01/15 00:22:36;;;;;;;;;;;;;;;2.98;78.53;100650.55;1770879;80;20232;-76
2022/01/15 00:25:02;;;;;;;;;;;;;;;3.41;76.15;100646.55;1766489;80;20748;-78
2022/01/15 00:27:28;;;;;;;;;;;;;;;3.47;76.44;100652.70;1756875;80;20877;-78
2022/01/15 00:29:53;;;;;;;;;;;;;;;3.36;76.85;100641.63;1766660;80;20185;-77
2022/01/15 00:32:19;;;;;;;;;;;;;;;3.45;76.53;100644.58;1775458;80;21194;-78
2022/01/15 00:34:44;;;;;;;;;;;;;;;3.36;76.95;100628.58;1765487;80;20247;-76
2022/01/15 00:37:10;;;;;;;;;;;;;;;3.40;76.77;100638.34;1770952;79;20167;-75
2022/01/15 00:39:36;;;;;;;;;;;;;;;3.37;76.75;100652.89;1766429;79;20179;-76
2022/01/15 00:42:02;;;;;;;;;;;;;;;3.19;77.38;100647.91;1773570;79;20455;-75
2022/01/15 00:44:28;;;;;;;;;;;;;;;3.23;77.43;100658.98;1773025;80;21066;-77
2022/01/15 00:46:53;;;;;;;;;;;;;;;3.39;77.51;100638.00;1772479;80;20280;-75
2022/01/15 00:49:19;;;;;;;;;;;;;;;3.26;77.56;100629.25;1776918;80;20131;-75
2022/01/15 00:51:44;;;;;;;;;;;;;;;3.52;76.86;100641.95;1769568;79;20400;-77
2022/01/15 00:54:10;;;;;;;;;;;;;;;3.23;77.46;100655.92;1774498;80;20139;-75
2022/01/15 00:56:36;;;;;;;;;;;;;;;3.06;77.98;100660.03;1775457;80;21070;-76
2022/01/15 00:59:01;;;;;;;;;;;;;;;3.28;77.53;100650.87;1774468;80;20737;-76
2022/01/15 01:01:27;;;;;;;;;;;;;;;3.27;77.34;100642.69;1767003;80;20216;-77
2022/01/15 01:03:52;;;;;;;;;;;;;;;2.78;78.85;100646.11;1767519;79;20143;-76
2022/01/15 01:06:18;;;;;;;;;;;;;;;2.65;79.69;100663.42;1761760;80;20156;-76
2022/01/15 01:08:43;;;;;;;;;;;;;;;2.58;80.29;100659.49;1768940;80;21036;-76
2022/01/15 01:11:15;;;;;;;;;;;;;;;2.60;79.95;100654.57;1766930;80;20141;-77
2022/01/15 01:20:02;;;;;;;;;;;;;;;2.51;80.53;100657.25;1771130;80;20132;-77
2022/01/15 01:22:21;;;;;;;;;;;;;;;2.45;80.58;100670.65;1770712;80;20161;-78
2022/01/15 01:24:05;;;;;;;;;;;;;;;2.48;80.58;100674.85;1765179;80;20149;-79
2022/01/15 01:26:41;;;;;;;;;;;;;;;2.34;81.29;100661.33;1769888;80;20208;-76
2022/01/15 01:29:22;;;;;;;;;;;;;;;2.47;81.07;100656.22;1766017;80;20465;-76
2022/01/15 01:31:51;;;;;;;;;;;;;;;2.51;81.38;100645.52;1769613;80;20090;-76
2022/01/15 01:34:08;;;;;;;;;;;;;;;2.50;80.75;100670.38;1768004;79;20152;-75
2022/01/15 01:36:43;;;;;;;;;;;;;;;2.43;81.49;100659.48;1771889;79;20128;-76
2022/01/15 01:39:07;;;;;;;;;;;;;;;2.32;82.45;100661.90;1761710;80;20136;-76
2022/01/15 01:41:35;;;;;;;;;;;;;;;2.39;82.36;100676.23;1760303;81;20150;-76
2022/01/15 01:44:01;;;;;;;;;;;;;;;2.35;82.45;100664.33;1760767;80;20206;-77
2022/01/15 01:48:53;;;;;;;;;;;;;;;2.26;83.20;100657.05;1711773;81;20460;-75
2022/01/15 01:51:33;;;;;;;;;;;;;;;2.25;83.00;100651.45;1721767;83;20179;-75
2022/01/15 01:54:07;;;;;;;;;;;;;;;2.35;82.84;100657.81;1747074;81;20216;-75
2022/01/15 01:56:32;;;;;;;;;;;;;;;2.34;83.01;100660.03;1748127;81;20193;-75
2022/01/15 01:58:58;;;;;;;;;;;;;;;2.31;83.66;100641.97;1749819;80;21198;-76
2022/01/15 02:01:24;;;;;;;;;;;;;;;2.31;83.78;100642.80;1750719;80;20682;-75
2022/01/15 02:03:49;;;;;;;;;;;;;;;2.61;83.15;100639.75;1746893;80;20161;-78
2022/01/15 02:06:15;;;;;;;;;;;;;;;2.05;84.83;100640.89;1747924;81;20145;-75
2022/01/15 02:08:41;;;;;;;;;;;;;;;2.12;85.19;100643.05;1759747;81;20633;-74
2022/01/15 02:11:07;;;;;;;;;;;;;;;2.80;82.74;100636.41;1761802;81;21136;-77
2022/01/15 02:13:33;;;;;;;;;;;;;;;2.36;84.72;100639.92;1760356;81;20469;-74
2022/01/15 02:16:01;;;;;;;;;;;;;;;2.25;84.62;100673.16;1760808;80;20162;-75
2022/01/15 02:18:27;;;;;;;;;;;;;;;2.70;83.66;100658.75;1718103;81;20181;-75
2022/01/15 02:23:32;;;;;;;;;;;;;;;2.25;84.95;100651.45;1732277;82;20186;-77
2022/01/15 02:23:32;;;;;;;;;;;;;;;2.17;85.71;100663.63;1726587;81;20133;-76
2022/01/15 02:26:01;;;;;;;;;;;;;;;2.49;85.14;100638.27;1732780;81;20228;-80
2022/01/15 02:28:38;;;;;;;;;;;;;;;2.50;84.32;100664.72;1721143;81;20147;-78
2022/01/15 02:31:05;;;;;;;;;;;;;;;2.97;82.31;100642.38;1723023;82;20262;-77
2022/01/15 02:33:31;;;;;;;;;;;;;;;3.17;81.65;100618.92;1742966;82;20595;-76
2022/01/15 02:35:57;;;;;;;;;;;;;;;2.66;82.26;100624.69;1741412;80;21168;-76
2022/01/15 02:38:22;;;;;;;;;;;;;;;2.41;84.49;100616.19;1748262;80;20193;-76
2022/01/15 02:40:48;;;;;;;;;;;;;;;2.32;84.92;100628.02;1743475;81;20122;-75
2022/01/15 02:43:18;;;;;;;;;;;;;;;2.46;84.68;100630.63;1750359;80;20857;-75
2022/01/15 02:45:46;;;;;;;;;;;;;;;2.48;84.37;100641.80;1746095;80;20512;-75
2022/01/15 02:48:13;;;;;;;;;;;;;;;2.49;84.37;100634.83;1743387;81;20360;-76
2022/01/15 02:50:39;;;;;;;;;;;;;;;2.61;83.93;100635.84;1747591;81;20704;-74
2022/01/15 02:53:04;;;;;;;;;;;;;;;2.57;84.10;100627.37;1749179;81;20138;-74
2022/01/15 02:55:30;;;;;;;;;;;;;;;2.15;85.68;100633.75;1744634;80;21246;-76
2022/01/15 02:57:56;;;;;;;;;;;;;;;2.27;85.72;100622.22;1753451;80;20191;-76
2022/01/15 03:00:22;;;;;;;;;;;;;;;2.28;85.38;100633.03;1744667;81;21052;-76
2022/01/15 03:02:48;;;;;;;;;;;;;;;2.14;85.71;100647.72;1750745;80;20169;-76
2022/01/15 03:05:13;;;;;;;;;;;;;;;2.13;86.04;100643.44;1748700;81;20192;-75
2022/01/15 03:07:39;;;;;;;;;;;;;;;2.15;85.52;100645.47;1751534;81;21048;-76
2022/01/15 03:10:05;;;;;;;;;;;;;;;2.44;84.56;100663.78;1747316;81;20153;-75
2022/01/15 03:12:31;;;;;;;;;;;;;;;2.88;82.88;100652.42;1750550;81;21195;-76
2022/01/15 03:15:02;;;;;;;;;;;;;;;3.16;81.62;100653.32;1747128;81;20138;-76
2022/01/15 03:17:24;;;;;;;;;;;;;;;2.95;82.00;100639.00;1744811;81;20149;-76
2022/01/15 03:19:49;;;;;;;;;;;;;;;3.23;81.30;100636.36;1750723;81;20159;-76
2022/01/15 03:22:15;;;;;;;;;;;;;;;3.34;80.65;100640.04;1751020;80;20169;-75
2022/01/15 03:24:40;;;;;;;;;;;;;;;2.83;82.45;100643.22;1751533;80;20976;-78
2022/01/15 03:27:06;;;;;;;;;;;;;;;2.87;82.74;100653.38;1749289;81;20172;-76
2022/01/15 03:29:32;;;;;;;;;;;;;;;3.02;82.25;100655.96;1746089;81;20240;-78
2022/01/15 03:31:58;;;;;;;;;;;;;;;2.83;82.59;100641.44;1750503;81;20121;-78
2022/01/15 03:34:23;;;;;;;;;;;;;;;2.81;82.86;100632.88;1748441;81;20157;-77
2022/01/15 03:36:49;;;;;;;;;;;;;;;1.89;86.88;100644.37;1745217;81;21083;-76
2022/01/15 03:39:14;;;;;;;;;;;;;;;1.66;88.27;100619.65;1743004;81;20442;-76
2022/01/15 03:41:40;;;;;;;;;;;;;;;1.69;88.78;100642.91;1704729;83;20213;-76
2022/01/15 03:44:06;;;;;;;;;;;;;;;1.67;89.12;100646.55;1701621;82;20216;-77
2022/01/15 03:46:31;;;;;;;;;;;;;;;1.77;88.43;100635.52;1729357;82;20543;-76
2022/01/15 03:48:57;;;;;;;;;;;;;;;1.72;88.90;100645.34;1728802;82;21032;-76
2022/01/15 03:51:22;;;;;;;;;;;;;;;2.30;87.46;100643.74;1730698;82;20766;-75
2022/01/15 03:53:48;;;;;;;;;;;;;;;1.62;88.91;100663.72;1727768;82;20128;-77
2022/01/15 03:56:13;;;;;;;;;;;;;;;1.93;88.62;100636.77;1727114;82;20152;-78
2022/01/15 03:58:39;;;;;;;;;;;;;;;2.59;86.08;100652.05;1731578;82;20148;-78
2022/01/15 04:01:04;;;;;;;;;;;;;;;2.75;84.22;100623.27;1728421;82;21180;-77
2022/01/15 04:03:30;;;;;;;;;;;;;;;2.23;85.21;100644.20;1725568;82;20194;-77
2022/01/15 04:05:56;;;;;;;;;;;;;;;2.18;84.34;100633.22;1728366;82;20581;-77
2022/01/15 04:08:22;;;;;;;;;;;;;;;2.31;87.07;100648.01;1719221;82;20425;-78
2022/01/15 04:10:48;;;;;;;;;;;;;;;2.94;83.49;100659.52;1729411;82;20120;-74
2022/01/15 04:13:15;;;;;;;;;;;;;;;2.97;82.65;100654.11;1727826;82;22184;-75
2022/01/15 04:15:41;;;;;;;;;;;;;;;2.66;83.76;100652.07;1727687;82;20185;-78
2022/01/15 04:18:07;;;;;;;;;;;;;;;2.46;84.85;100663.69;1727266;82;20866;-75
2022/01/15 04:20:32;;;;;;;;;;;;;;;2.58;83.78;100664.70;1727582;82;20429;-74
2022/01/15 04:22:58;;;;;;;;;;;;;;;2.43;83.92;100656.88;1722755;82;20165;-74
2022/01/15 04:25:24;;;;;;;;;;;;;;;2.32;84.76;100657.52;1726784;82;21059;-76
2022/01/15 04:27:49;;;;;;;;;;;;;;;2.61;84.12;100672.34;1728034;82;20195;-75
2022/01/15 04:30:16;;;;;;;;;;;;;;;2.47;83.92;100666.20;1727514;82;20199;-75
2022/01/15 04:32:42;;;;;;;;;;;;;;;2.51;83.96;100664.24;1724560;82;20172;-75
2022/01/15 04:35:07;;;;;;;;;;;;;;;2.63;83.14;100671.81;1724562;82;20434;-76
2022/01/15 04:37:43;;;;;;;;;;;;;;;2.55;83.44;100679.23;1724508;82;21914;-75
2022/01/15 04:40:07;;;;;;;;;;;;;;;2.66;82.96;100673.75;1771536;79;20464;-77
2022/01/15 04:42:33;;;;;;;;;;;;;;;2.99;81.89;100677.02;1770644;80;20187;-75
2022/01/15 04:44:59;;;;;;;;;;;;;;;2.94;81.42;100703.87;1774066;80;20147;-74
2022/01/15 04:47:25;;;;;;;;;;;;;;;3.02;81.02;100679.44;1778247;80;20261;-74
2022/01/15 04:49:51;;;;;;;;;;;;;;;3.05;80.95;100684.47;1764902;80;21122;-79
2022/01/15 04:52:16;;;;;;;;;;;;;;;2.90;81.27;100695.36;1772446;80;20453;-76
2022/01/15 04:54:42;;;;;;;;;;;;;;;3.05;80.86;100685.78;1768066;80;20117;-77
2022/01/15 04:57:07;;;;;;;;;;;;;;;2.79;81.49;100715.58;1769950;79;20202;-77
2022/01/15 04:59:33;;;;;;;;;;;;;;;2.68;81.71;100724.03;1766718;79;20153;-79
2022/01/15 05:01:59;;;;;;;;;;;;;;;2.75;82.10;100719.32;1777924;80;21758;-77
2022/01/15 05:04:24;;;;;;;;;;;;;;;2.98;81.23;100732.73;1785631;80;20159;-77
2022/01/15 05:06:50;;;;;;;;;;;;;;;3.00;80.76;100721.28;1774077;80;20141;-76
2022/01/15 05:09:15;;;;;;;;;;;;;;;2.96;80.63;100728.08;1769854;80;20133;-77
2022/01/15 05:11:55;;;;;;;;;;;;;;;2.98;80.67;100737.95;1769147;80;20476;-77
2022/01/15 05:14:17;;;;;;;;;;;;;;;2.96;80.90;100737.21;1772797;80;20152;-79
2022/01/15 05:16:43;;;;;;;;;;;;;;;2.95;80.64;100745.95;1771841;80;20165;-77
2022/01/15 05:19:09;;;;;;;;;;;;;;;2.93;81.11;100759.57;1761926;80;20191;-77
2022/01/15 05:21:34;;;;;;;;;;;;;;;2.90;80.99;100750.62;1768217;80;20177;-77
2022/01/15 05:24:00;;;;;;;;;;;;;;;2.80;81.16;100768.13;1778384;80;20135;-77
2022/01/15 05:26:25;;;;;;;;;;;;;;;3.00;80.54;100760.41;1770192;80;21171;-78
2022/01/15 05:28:51;;;;;;;;;;;;;;;3.22;79.97;100744.77;1779335;80;20185;-76
2022/01/15 05:31:16;;;;;;;;;;;;;;;2.80;81.21;100753.78;1782890;80;20147;-76
2022/01/15 05:33:42;;;;;;;;;;;;;;;2.64;82.23;100760.81;1787515;80;20448;-77
2022/01/15 05:36:08;;;;;;;;;;;;;;;2.79;81.65;100753.39;1779467;80;20205;-76
2022/01/15 05:38:33;;;;;;;;;;;;;;;2.74;81.74;100772.39;1773201;80;21150;-77
2022/01/15 05:40:59;;;;;;;;;;;;;;;2.81;82.02;100758.08;1757649;80;20490;-77
2022/01/15 05:43:24;;;;;;;;;;;;;;;2.45;82.73;100747.55;1765244;80;20175;-78
2022/01/15 05:45:50;;;;;;;;;;;;;;;1.64;86.19;100769.89;1763118;80;20131;-77
2022/01/15 05:48:16;;;;;;;;;;;;;;;1.57;87.86;100756.83;1767642;80;20136;-77
2022/01/15 05:50:41;;;;;;;;;;;;;;;1.63;87.44;100765.60;1769022;80;21088;-76
2022/01/15 05:53:07;;;;;;;;;;;;;;;1.51;88.09;100794.89;1763013;80;20376;-76
2022/01/15 05:55:32;;;;;;;;;;;;;;;1.58;88.08;100767.62;1763388;80;20135;-77
2022/01/15 05:57:58;;;;;;;;;;;;;;;1.69;86.85;100775.69;1766431;79;20445;-79
2022/01/15 06:00:23;;;;;;;;;;;;;;;1.79;87.91;100760.42;1756210;80;20131;-76
2022/01/15 06:02:49;;;;;;;;;;;;;;;1.78;87.47;100766.07;1762903;80;21092;-77
2022/01/15 06:05:14;;;;;;;;;;;;;;;1.51;87.85;100761.06;1771484;80;21193;-76
2022/01/15 06:07:40;;;;;;;;;;;;;;;2.14;86.63;100761.50;1768813;80;20157;-77
2022/01/15 06:10:07;;;;;;;;;;;;;;;2.51;84.09;100764.14;1762677;80;20124;-76
2022/01/15 06:12:41;;;;;;;;;;;;;;;2.60;83.38;100789.32;1752062;80;20168;-76
2022/01/15 06:15:00;;;;;;;;;;;;;;;2.60;83.25;100765.86;1741732;80;20149;-77
2022/01/15 06:17:25;;;;;;;;;;;;;;;2.33;84.32;100775.17;1764251;80;20316;-77
2022/01/15 06:19:51;;;;;;;;;;;;;;;2.51;83.44;100764.14;1773578;80;20128;-76
2022/01/15 06:22:16;;;;;;;;;;;;;;;2.49;83.22;100775.13;1764613;80;20147;-77
2022/01/15 06:24:42;;;;;;;;;;;;;;;2.58;83.20;100774.20;1766402;80;20181;-75
2022/01/15 06:27:11;;;;;;;;;;;;;;;1.86;85.42;100784.34;1762457;80;21075;-75
2022/01/15 06:29:35;;;;;;;;;;;;;;;1.58;87.45;100766.33;1765268;80;20167;-75
2022/01/15 06:32:01;;;;;;;;;;;;;;;1.58;87.65;100759.81;1763225;80;20132;-77
2022/01/15 06:34:26;;;;;;;;;;;;;;;1.61;87.46;100781.77;1763157;80;20137;-75
2022/01/15 06:36:52;;;;;;;;;;;;;;;1.54;87.92;100783.02;1764706;80;20486;-75
2022/01/15 06:39:17;;;;;;;;;;;;;;;1.75;87.30;100772.75;1765722;80;21894;-77
2022/01/15 06:41:43;;;;;;;;;;;;;;;1.53;87.67;100786.09;1758659;80;20146;-75
2022/01/15 06:44:08;;;;;;;;;;;;;;;1.52;87.78;100772.69;1762318;80;20133;-75
2022/01/15 06:46:34;;;;;;;;;;;;;;;1.59;88.17;100800.55;1766884;80;20141;-75
2022/01/15 06:48:59;;;;;;;;;;;;;;;1.64;87.86;100788.12;1768890;80;20502;-75
2022/01/15 06:51:25;;;;;;;;;;;;;;;1.63;87.82;100782.52;1757703;80;21239;-78
2022/01/15 06:53:51;;;;;;;;;;;;;;;1.71;87.59;100784.27;1758817;80;20134;-75
2022/01/15 06:56:16;;;;;;;;;;;;;;;1.64;87.33;100780.31;1758717;80;20250;-75
2022/01/15 06:58:42;;;;;;;;;;;;;;;1.70;87.91;100795.59;1762710;80;20221;-75
2022/01/15 07:01:08;;;;;;;;;;;;;;;2.28;86.60;100821.48;1780092;80;20139;-78
2022/01/15 07:03:34;;;;;;;;;;;;;;;3.10;81.57;100805.05;1751734;80;21160;-75
2022/01/15 07:06:00;;;;;;;;;;;;;;;2.00;84.35;100803.95;1757664;80;20209;-75
2022/01/15 07:08:25;;;;;;;;;;;;;;;2.39;84.39;100811.76;1759963;80;20432;-78
2022/01/15 07:10:51;;;;;;;;;;;;;;;2.49;84.11;100818.14;1762031;80;20478;-77
2022/01/15 07:13:20;;;;;;;;;;;;;;;2.62;83.67;100820.88;1770766;80;20139;-76
2022/01/15 07:15:44;;;;;;;;;;;;;;;2.39;84.20;100816.97;1759813;80;20170;-75
2022/01/15 07:18:09;;;;;;;;;;;;;;;2.35;84.45;100823.30;1764172;80;20551;-75
2022/01/15 07:20:35;;;;;;;;;;;;;;;2.46;84.11;100818.31;1773032;80;20147;-75
2022/01/15 07:23:00;;;;;;;;;;;;;;;2.40;84.30;100823.87;1764627;80;20440;-75
2022/01/15 07:25:26;;;;;;;;;;;;;;;2.57;83.76;100820.78;1766883;80;20151;-76
2022/01/15 07:27:52;;;;;;;;;;;;;;;2.29;84.90;100834.08;1751433;80;21102;-76
2022/01/15 07:30:17;;;;;;;;;;;;;;;2.45;84.57;100844.47;1766523;80;20185;-77
2022/01/15 07:32:43;;;;;;;;;;;;;;;2.25;84.84;100841.23;1755682;80;20279;-77
2022/01/15 07:35:09;;;;;;;;;;;;;;;2.43;84.77;100825.48;1769296;80;20249;-76
2022/01/15 07:37:35;;;;;;;;;;;;;;;2.40;84.60;100846.03;1764770;80;20202;-76
2022/01/15 07:40:01;;;;;;;;;;;;;;;2.50;84.60;100847.20;1757880;80;21922;-77
2022/01/15 07:42:28;;;;;;;;;;;;;;;2.32;85.24;100858.66;1777251;80;20188;-76
2022/01/15 07:44:54;;;;;;;;;;;;;;;2.66;84.46;100842.42;1758586;80;20187;-75
2022/01/15 07:47:19;;;;;;;;;;;;;;;2.68;84.24;100847.08;1754629;80;20483;-76
2022/01/15 07:49:45;;;;;;;;;;;;;;;2.32;85.20;100854.75;1752896;80;20157;-75
2022/01/15 07:52:10;;;;;;;;;;;;;;;2.46;85.50;100846.16;1759300;80;21133;-76
2022/01/15 07:54:36;;;;;;;;;;;;;;;2.37;85.12;100857.11;1743405;82;20146;-74
2022/01/15 07:57:02;;;;;;;;;;;;;;;2.35;86.01;100851.98;1741231;80;20131;-74
2022/01/15 07:59:28;;;;;;;;;;;;;;;2.38;85.61;100861.38;1740166;80;20190;-78
2022/01/15 08:01:54;;;;;;;;;;;;;;;1.41;89.92;100875.23;1750151;80;20175;-77
2022/01/15 08:04:20;;;;;;;;;;;;;;;1.60;90.09;100873.36;1743336;80;21120;-75
2022/01/15 08:06:45;;;;;;;;;;;;;;;1.63;89.85;100871.03;1729292;80;20303;-77
2022/01/15 08:09:11;;;;;;;;;;;;;;;1.68;90.23;100866.89;1729448;80;20153;-78
2022/01/15 08:11:36;;;;;;;;;;;;;;;1.87;89.53;100865.00;1742663;80;20220;-77
2022/01/15 08:14:02;;;;;;;;;;;;;;;1.85;89.39;100869.45;1741890;80;20255;-77
2022/01/15 08:16:28;;;;;;;;;;;;;;;1.91;89.49;100872.17;1741276;80;21367;-77
2022/01/15 08:18:53;;;;;;;;;;;;;;;2.03;88.83;100868.91;1733818;80;20485;-76
2022/01/15 08:21:19;;;;;;;;;;;;;;;2.07;88.98;100876.95;1747124;80;20147;-79
2022/01/15 08:23:45;;;;;;;;;;;;;;;2.38;88.05;100874.40;1739747;80;20119;-77
2022/01/15 08:26:10;;;;;;;;;;;;;;;2.78;86.71;100873.02;1730472;79;20941;-77
2022/01/15 08:28:39;;;;;;;;;;;;;;;2.86;84.92;100887.75;1732028;80;21808;-75
2022/01/15 08:31:06;;;;;;;;;;;;;;;3.09;83.93;100880.34;1740472;80;20159;-77
2022/01/15 08:33:32;;;;;;;;;;;;;;;3.17;83.80;100880.75;1735797;80;20163;-76
2022/01/15 08:35:58;;;;;;;;;;;;;;;3.37;82.93;100881.32;1733732;80;20148;-76
2022/01/15 08:38:23;;;;;;;;;;;;;;;3.39;83.02;100879.48;1740813;80;20234;-76
2022/01/15 08:40:49;;;;;;;;;;;;;;;3.11;83.86;100861.54;1766080;80;20946;-76
2022/01/15 08:43:15;;;;;;;;;;;;;;;3.16;83.44;100866.02;1771833;80;20194;-78
2022/01/15 08:45:40;;;;;;;;;;;;;;;3.27;82.82;100866.69;1769971;80;20139;-75
2022/01/15 08:48:07;;;;;;;;;;;;;;;3.20;82.98;100881.02;1743227;80;20110;-77
2022/01/15 08:50:33;;;;;;;;;;;;;;;3.45;82.19;100875.20;1751069;80;20218;-77
2022/01/15 08:52:58;;;;;;;;;;;;;;;3.13;83.16;100871.41;1756146;80;21870;-77
2022/01/15 08:55:28;;;;;;;;;;;;;;;3.59;81.94;100872.58;1758248;80;20135;-76
2022/01/15 08:57:51;;;;;;;;;;;;;;;3.49;81.77;100885.81;1759958;80;20644;-75
2022/01/15 09:00:17;;;;;;;;;;;;;;;3.39;81.98;100899.06;1756468;81;20184;-77
2022/01/15 09:02:43;;;;;;;;;;;;;;;3.30;82.47;100877.41;1758975;80;20120;-76
2022/01/15 09:05:09;;;;;;;;;;;;;;;3.27;82.40;100898.48;1757916;80;21976;-76
2022/01/15 09:07:35;;;;;;;;;;;;;;;3.43;82.53;100883.56;1760717;80;20203;-76
2022/01/15 09:10:00;;;;;;;;;;;;;;;3.64;81.59;100901.51;1756113;80;21467;-76
2022/01/15 09:12:26;;;;;;;;;;;;;;;3.70;80.70;100899.36;1770540;80;20505;-75
2022/01/15 09:14:58;;;;;;;;;;;;;;;3.72;81.05;100908.41;1757543;81;20111;-75
2022/01/15 09:17:22;;;;;;;;;;;;;;;3.51;81.27;100897.02;1741763;81;20571;-76
2022/01/15 09:19:47;;;;;;;;;;;;;;;3.38;82.08;100913.03;1738909;81;20451;-77
2022/01/15 09:22:13;;;;;;;;;;;;;;;3.50;81.23;100894.03;1752225;80;20158;-78
2022/01/15 09:24:39;;;;;;;;;;;;;;;3.72;80.48;100930.61;1750981;80;20108;-75
2022/01/15 09:30:12;;;;;;;;;;;;;;;3.77;80.58;100929.85;1759941;79;20156;-76
2022/01/15 09:32:16;;;;;;;;;;;;;;;3.56;81.12;100953.72;1760960;80;20159;-78
2022/01/15 09:34:42;;;;;;;;;;;;;;;2.95;83.56;100897.27;1760687;79;21036;-76
2022/01/15 09:37:07;;;;;;;;;;;;;;;3.62;81.41;100920.33;1770861;79;20136;-77
2022/01/15 09:39:33;;;;;;;;;;;;;;;3.77;81.54;100929.85;1766691;80;20146;-76
2022/01/15 09:41:58;;;;;;;;;;;;;;;3.67;81.36;100905.24;1732303;82;21973;-77
2022/01/15 09:44:24;;;;;;;;;;;;;;;2.99;82.78;100921.79;1735333;82;20155;-76
2022/01/15 09:46:50;;;;;;;;;;;;;;;3.61;81.65;100908.22;1735688;80;20177;-76
2022/01/15 09:49:18;;;;;;;;;;;;;;;2.86;83.67;100919.05;1733870;82;21079;-76
2022/01/15 09:51:44;;;;;;;;;;;;;;;3.89;80.74;100929.59;1733911;82;20109;-76
2022/01/15 09:54:13;;;;;;;;;;;;;;;3.84;80.76;100928.56;1729973;82;21162;-75
2022/01/15 09:56:38;;;;;;;;;;;;;;;4.01;80.04;100909.23;1735439;82;20126;-76
2022/01/15 09:59:04;;;;;;;;;;;;;;;4.00;79.85;100915.38;1737712;82;20138;-76
2022/01/15 10:01:30;;;;;;;;;;;;;;;4.03;79.68;100914.37;1736982;81;20716;-76
2022/01/15 10:03:56;;;;;;;;;;;;;;;4.11;79.53;100916.03;1737803;82;20247;-79
2022/01/15 10:06:22;;;;;;;;;;;;;;;4.05;79.29;100904.65;1737940;82;21183;-75
2022/01/15 10:09:04;;;;;;;;;;;;;;;4.07;79.53;100927.59;1738123;81;21231;-74
2022/01/15 10:11:48;;;;;;;;;;;;;;;3.99;79.54;100935.08;1736363;82;20171;-75
2022/01/15 10:14:28;;;;;;;;;;;;;;;4.22;78.66;100935.80;1736187;82;20660;-75
2022/01/15 10:16:55;;;;;;;;;;;;;;;4.10;78.86;100911.72;1729942;82;20179;-77
2022/01/15 10:19:26;;;;;;;;;;;;;;;4.16;78.17;100925.72;1739589;81;21125;-78
2022/01/15 10:22:13;;;;;;;;;;;;;;;4.34;77.96;100918.52;1740539;80;20114;-77
2022/01/15 10:24:40;;;;;;;;;;;;;;;4.18;78.25;100933.02;1699534;82;34099;-76
2022/01/15 10:27:27;;;;;;;;;;;;;;;4.41;77.84;100921.57;1729653;81;20175;-79
2022/01/15 10:30:12;;;;;;;;;;;;;;;4.41;78.05;100933.34;1734909;82;20182;-76
2022/01/15 10:32:40;;;;;;;;;;;;;;;4.49;77.43;100921.94;1736675;82;21089;-77
2022/01/15 10:35:14;;;;;;;;;;;;;;;4.97;75.78;100921.45;1731283;82;20137;-79
2022/01/15 10:38:06;;;;;;;;;;;;;;;4.42;77.22;100964.62;1739651;82;20141;-78
2022/01/15 10:40:43;;;;;;;;;;;;;;;4.34;77.18;100956.91;1735038;81;21018;-79
2022/01/15 10:43:10;;;;;;;;;;;;;;;3.48;80.83;100966.41;1740735;80;21033;-78
2022/01/15 10:45:37;;;;;;;;;;;;;;;4.50;77.42;100947.14;1741682;81;21132;-77
2022/01/15 10:48:07;;;;;;;;;;;;;;;3.55;80.12;100946.81;1715106;82;20168;-77
2022/01/15 10:50:35;;;;;;;;;;;;;;;3.55;80.85;100949.42;1724656;82;20151;-81
2022/01/15 10:53:13;;;;;;;;;;;;;;;3.46;81.33;100959.10;1728637;82;20172;-77
2022/01/15 10:55:37;;;;;;;;;;;;;;;3.69;81.19;100956.91;1723232;82;20155;-77
2022/01/15 10:58:05;;;;;;;;;;;;;;;3.49;81.84;100953.70;1725564;82;21074;-77
2022/01/15 11:00:39;;;;;;;;;;;;;;;4.21;79.30;100958.97;1727368;82;20119;-78
2022/01/15 11:03:10;;;;;;;;;;;;;;;4.85;76.57;100954.52;1729364;82;20116;-78
2022/01/15 11:05:41;;;;;;;;;;;;;;;4.98;75.51;100971.09;1725275;82;20207;-78
2022/01/15 11:08:14;;;;;;;;;;;;;;;4.64;76.19;100956.73;1724241;82;20184;-78
2022/01/15 11:10:47;;;;;;;;;;;;;;;4.49;76.50;100972.46;1726866;82;21265;-77
2022/01/15 11:13:14;;;;;;;;;;;;;;;;;;1723722;82;20172;-78
2022/01/15 11:15:41;;;;;;;;;;;;;;;4.81;75.75;100954.34;1727365;82;20299;-79
2022/01/15 11:18:08;;;;;;;;;;;;;;;5.07;74.81;100968.84;1725083;82;20204;-79
2022/01/15 11:20:34;;;;;;;;;;;;;;;5.16;74.33;100968.23;1720634;82;20192;-78
2022/01/15 11:23:01;;;;;;;;;;;;;;;5.06;74.14;100995.94;1726602;82;21133;-81
2022/01/15 11:25:28;;;;;;;;;;;;;;;5.20;73.78;100998.05;1722114;82;20226;-80
2022/01/15 11:27:53;;;;;;;;;;;;;;;5.10;74.13;100986.96;1724037;82;20196;-76
2022/01/15 11:30:20;;;;;;;;;;;;;;;5.14;73.99;100988.41;1725871;82;20174;-77
2022/01/15 11:32:45;;;;;;;;;;;;;;;4.85;74.92;100984.14;1724831;81;20201;-78
2022/01/15 11:35:11;;;;;;;;;;;;;;;5.02;74.84;100977.81;1720655;82;21202;-78
2022/01/15 11:37:49;;;;;;;;;;;;;;;4.98;74.98;100981.56;1725550;81;20174;-78
2022/01/15 11:40:38;;;;;;;;;;;;;;;5.19;74.45;100988.98;1733152;80;20648;-78
2022/01/15 11:43:25;;;;;;;;;;;;;;;5.36;73.90;100993.94;1766757;80;20147;-79
2022/01/15 11:45:55;;;;;;;;;;;;;;;5.18;73.78;101008.23;1770148;79;20201;-78
2022/01/15 11:48:25;;;;;;;;;;;;;;;5.32;73.74;100993.76;1773836;79;21035;-81
2022/01/15 11:51:15;;;;;;;;;;;;;;;5.30;73.66;100990.41;1769774;80;20116;-79
2022/01/15 11:53:59;;;;;;;;;;;;;;;5.34;73.26;100989.73;1768151;79;20134;-79
2022/01/15 11:56:29;;;;;;;;;;;;;;;5.75;72.39;100968.61;1769997;79;20193;-78
2022/01/15 11:58:56;;;;;;;;;;;;;;;5.59;72.62;100970.58;1766887;80;20220;-77
2022/01/15 12:01:42;;;;;;;;;;;;;;;5.69;72.93;100969.03;1763963;80;21113;-78
2022/01/15 12:04:28;;;;;;;;;;;;;;;5.63;72.03;100982.55;1774691;79;20215;-77
2022/01/15 12:07:09;;;;;;;;;;;;;;;5.69;71.47;100982.13;1769447;80;20187;-77
2022/01/15 12:09:38;;;;;;;;;;;;;;;5.81;71.66;100967.81;1775514;80;20164;-77
2022/01/15 12:12:39;;;;;;;;;;;;;;;6.11;71.14;100968.36;1763793;80;20179;-78
2022/01/15 12:15:04;;;;;;;;;;;;;;;5.95;70.89;100961.17;1768755;80;20119;-76
2022/01/15 12:17:39;;;;;;;;;;;;;;;5.99;71.38;100967.89;1765160;79;21099;-79
2022/01/15 12:20:07;;;;;;;;;;;;;;;5.92;70.88;100979.73;1760176;79;20226;-78
2022/01/15 12:22:45;;;;;;;;;;;;;;;6.06;71.00;100968.30;1767623;80;20195;-78
2022/01/15 12:25:20;;;;;;;;;;;;;;;6.09;70.78;100968.94;1771916;80;21067;-81
2022/01/15 12:27:58;;;;;;;;;;;;;;;6.20;70.50;100968.64;1770628;80;21895;-78
2022/01/15 12:30:29;;;;;;;;;;;;;;;6.71;68.92;100972.47;1769785;79;20128;-81
2022/01/15 12:32:57;;;;;;;;;;;;;;;6.72;67.71;100971.50;1772800;79;20171;-78
2022/01/15 12:35:27;;;;;;;;;;;;;;;6.95;66.95;100968.52;1767186;80;21057;-79
2022/01/15 12:38:01;;;;;;;;;;;;;;;7.10;66.17;100967.88;1773390;80;20189;-78
2022/01/15 12:40:33;;;;;;;;;;;;;;;6.90;66.35;100986.86;1768526;80;22339;-78
2022/01/15 12:43:04;;;;;;;;;;;;;;;6.77;66.82;100993.48;1770216;80;20466;-79
2022/01/15 12:45:29;;;;;;;;;;;;;;;6.66;66.76;100985.06;1771202;80;20187;-81
2022/01/15 12:47:55;;;;;;;;;;;;;;;7.04;66.05;100976.20;1774285;79;21187;-78
2022/01/15 12:50:20;;;;;;;;;;;;;;;6.24;67.58;100980.13;1766117;80;20177;-78
2022/01/15 12:52:46;;;;;;;;;;;;;;;6.70;66.73;100979.97;1772115;80;21166;-77
2022/01/15 12:55:12;;;;;;;;;;;;;;;6.59;66.63;100982.05;1771922;79;20793;-79
2022/01/15 12:57:43;;;;;;;;;;;;;;;6.64;66.18;100983.03;1765700;80;20238;-78
2022/01/15 13:00:14;;;;;;;;;;;;;;;6.82;65.86;100987.41;1764145;80;20956;-81